sensor_id;sensor_type;location;lat;lon;timestamp;pressure;altitude;pressure_sealevel;temperature;humidity
59053;BME280;44843;44.728;10.396;2023-02-15T00:00:53;101901.56;;;5.49;nan
59053;BME280;44843;44.728;10.396;2023-02-15T00:03:21;101899.53;;;5.73;nan
59053;BME280;44843;44.728;10.396;2023-02-15T00:05:47;101898.75;;;5.66;nan
59053;BME280;44843;44.728;10.396;2023-02-15T00:08:12;101903.69;;;5.83;nan
59053;BME280;44843;44.728;10.396;2023-02-15T00:10:37;101898.34;;;5.94;nan
59053;BME280;44843;44.728;10.396;2023-02-15T00:13:03;101900.88;;;6.02;nan
59053;BME280;44843;44.728;10.396;2023-02-15T00:15:28;101893.06;;;6.05;nan
59053;BME280;44843;44.728;10.396;2023-02-15T00:17:53;101884.63;;;5.89;nan
59053;BME280;44843;44.728;10.396;2023-02-15T00:20:19;101888.31;;;5.74;nan
59053;BME280;44843;44.728;10.396;2023-02-15T00:22:44;101885.84;;;5.65;nan
59053;BME280;44843;44.728;10.396;2023-02-15T00:25:09;101888.66;;;5.49;nan
59053;BME280;44843;44.728;10.396;2023-02-15T00:27:35;101892.22;;;5.37;nan
59053;BME280;44843;44.728;10.396;2023-02-15T00:30:00;101882.56;;;5.50;nan
59053;BME280;44843;44.728;10.396;2023-02-15T00:32:26;101891.25;;;5.48;nan
59053;BME280;44843;44.728;10.396;2023-02-15T00:34:51;101892.16;;;5.44;nan
59053;BME280;44843;44.728;10.396;2023-02-15T00:37:16;101893.00;;;5.46;nan
59053;BME280;44843;44.728;10.396;2023-02-15T00:39:42;101893.69;;;5.60;nan
59053;BME280;44843;44.728;10.396;2023-02-15T00:42:07;101895.59;;;5.44;nan
59053;BME280;44843;44.728;10.396;2023-02-15T00:44:32;101894.59;;;5.57;nan
59053;BME280;44843;44.728;10.396;2023-02-15T00:46:58;101898.22;;;5.41;nan
59053;BME280;44843;44.728;10.396;2023-02-15T00:49:23;101896.38;;;5.51;nan
59053;BME280;44843;44.728;10.396;2023-02-15T00:51:49;101892.78;;;5.61;nan
59053;BME280;44843;44.728;10.396;2023-02-15T00:54:14;101894.63;;;5.53;nan
59053;BME280;44843;44.728;10.396;2023-02-15T00:56:39;101897.06;;;5.64;nan
59053;BME280;44843;44.728;10.396;2023-02-15T00:59:05;101901.44;;;5.60;nan
59053;BME280;44843;44.728;10.396;2023-02-15T01:01:30;101909.41;;;5.45;nan
59053;BME280;44843;44.728;10.396;2023-02-15T01:03:56;101903.28;;;5.50;nan
59053;BME280;44843;44.728;10.396;2023-02-15T01:06:21;101897.03;;;5.65;nan
59053;BME280;44843;44.728;10.396;2023-02-15T01:08:47;101894.09;;;5.90;nan
59053;BME280;44843;44.728;10.396;2023-02-15T01:11:17;101897.31;;;6.09;nan
59053;BME280;44843;44.728;10.396;2023-02-15T01:13:47;101896.41;;;6.10;nan
59053;BME280;44843;44.728;10.396;2023-02-15T01:16:13;101899.13;;;6.04;nan
59053;BME280;44843;44.728;10.396;2023-02-15T01:18:38;101891.38;;;6.01;nan
59053;BME280;44843;44.728;10.396;2023-02-15T01:21:14;101889.75;;;5.95;nan
59053;BME280;44843;44.728;10.396;2023-02-15T01:23:41;101886.53;;;5.76;nan
59053;BME280;44843;44.728;10.396;2023-02-15T01:26:07;101883.22;;;5.66;nan
59053;BME280;44843;44.728;10.396;2023-02-15T01:28:33;101881.66;;;5.54;nan
59053;BME280;44843;44.728;10.396;2023-02-15T01:30:58;101880.81;;;5.54;nan
59053;BME280;44843;44.728;10.396;2023-02-15T01:33:24;101883.34;;;5.58;nan
59053;BME280;44843;44.728;10.396;2023-02-15T01:35:56;101873.13;;;5.46;nan
59053;BME280;44843;44.728;10.396;2023-02-15T01:38:22;101880.75;;;5.58;nan
59053;BME280;44843;44.728;10.396;2023-02-15T01:40:51;101873.06;;;5.54;nan
59053;BME280;44843;44.728;10.396;2023-02-15T01:43:17;101861.03;;;5.50;nan
59053;BME280;44843;44.728;10.396;2023-02-15T01:45:45;101879.34;;;5.36;nan
59053;BME280;44843;44.728;10.396;2023-02-15T01:48:24;101872.59;;;5.23;nan
59053;BME280;44843;44.728;10.396;2023-02-15T01:50:54;101870.25;;;5.01;nan
59053;BME280;44843;44.728;10.396;2023-02-15T01:56:02;101874.53;;;5.04;nan
59053;BME280;44843;44.728;10.396;2023-02-15T01:58:29;101864.91;;;5.16;nan
59053;BME280;44843;44.728;10.396;2023-02-15T02:00:58;101865.75;;;5.19;nan
59053;BME280;44843;44.728;10.396;2023-02-15T02:06:36;101848.25;;;5.37;nan
59053;BME280;44843;44.728;10.396;2023-02-15T02:09:03;101853.59;;;5.24;nan
59053;BME280;44843;44.728;10.396;2023-02-15T02:11:28;101842.28;;;5.32;nan
59053;BME280;44843;44.728;10.396;2023-02-15T02:13:54;101844.06;;;5.29;nan
59053;BME280;44843;44.728;10.396;2023-02-15T02:24:32;101846.06;;;5.07;nan
59053;BME280;44843;44.728;10.396;2023-02-15T02:40:25;101832.34;;;5.02;nan
59053;BME280;44843;44.728;10.396;2023-02-15T02:43:26;101843.56;;;4.99;nan
59053;BME280;44843;44.728;10.396;2023-02-15T02:46:02;101840.09;;;5.03;nan
59053;BME280;44843;44.728;10.396;2023-02-15T02:48:32;101838.25;;;5.11;nan
59053;BME280;44843;44.728;10.396;2023-02-15T02:50:58;101831.28;;;5.16;nan
59053;BME280;44843;44.728;10.396;2023-02-15T02:53:24;101829.63;;;5.09;nan
59053;BME280;44843;44.728;10.396;2023-02-15T02:55:56;101822.66;;;5.18;nan
59053;BME280;44843;44.728;10.396;2023-02-15T02:58:36;101823.41;;;5.26;nan
59053;BME280;44843;44.728;10.396;2023-02-15T03:01:20;101822.50;;;5.28;nan
59053;BME280;44843;44.728;10.396;2023-02-15T03:03:51;101819.72;;;5.42;nan
59053;BME280;44843;44.728;10.396;2023-02-15T03:06:43;101822.50;;;5.30;nan
59053;BME280;44843;44.728;10.396;2023-02-15T03:09:30;101818.38;;;5.16;nan
59053;BME280;44843;44.728;10.396;2023-02-15T03:12:07;101816.72;;;5.09;nan
59053;BME280;44843;44.728;10.396;2023-02-15T03:14:34;101811.44;;;5.19;nan
59053;BME280;44843;44.728;10.396;2023-02-15T03:17:00;101813.34;;;5.06;nan
59053;BME280;44843;44.728;10.396;2023-02-15T03:19:29;101814.09;;;5.12;nan
59053;BME280;44843;44.728;10.396;2023-02-15T03:22:03;101807.25;;;5.08;nan
59053;BME280;44843;44.728;10.396;2023-02-15T03:25:04;101819.41;;;5.00;nan
59053;BME280;44843;44.728;10.396;2023-02-15T03:27:31;101811.66;;;5.00;nan
59053;BME280;44843;44.728;10.396;2023-02-15T03:29:59;101816.84;;;5.00;nan
59053;BME280;44843;44.728;10.396;2023-02-15T03:32:28;101814.28;;;4.99;nan
59053;BME280;44843;44.728;10.396;2023-02-15T03:34:54;101805.69;;;4.95;nan
59053;BME280;44843;44.728;10.396;2023-02-15T03:37:32;101803.16;;;4.92;nan
59053;BME280;44843;44.728;10.396;2023-02-15T03:43:03;101810.03;;;4.94;nan
59053;BME280;44843;44.728;10.396;2023-02-15T03:45:35;101807.63;;;4.78;nan
59053;BME280;44843;44.728;10.396;2023-02-15T03:48:04;101811.00;;;4.83;nan
59053;BME280;44843;44.728;10.396;2023-02-15T03:50:32;101810.16;;;4.82;nan
59053;BME280;44843;44.728;10.396;2023-02-15T03:53:20;101807.44;;;4.93;nan
59053;BME280;44843;44.728;10.396;2023-02-15T03:55:49;101804.66;;;5.10;nan
59053;BME280;44843;44.728;10.396;2023-02-15T03:58:14;101814.03;;;5.19;nan
59053;BME280;44843;44.728;10.396;2023-02-15T04:01:00;101806.34;;;5.11;nan
59053;BME280;44843;44.728;10.396;2023-02-15T04:04:00;101819.59;;;4.85;nan
59053;BME280;44843;44.728;10.396;2023-02-15T04:06:26;101816.25;;;4.77;nan
59053;BME280;44843;44.728;10.396;2023-02-15T04:08:51;101821.41;;;4.80;nan
59053;BME280;44843;44.728;10.396;2023-02-15T04:11:35;101824.81;;;4.82;nan
59053;BME280;44843;44.728;10.396;2023-02-15T04:14:00;101821.28;;;4.90;nan
59053;BME280;44843;44.728;10.396;2023-02-15T04:16:46;101822.22;;;4.82;nan
59053;BME280;44843;44.728;10.396;2023-02-15T04:19:11;101824.03;;;4.75;nan
59053;BME280;44843;44.728;10.396;2023-02-15T04:21:55;101815.56;;;4.64;nan
59053;BME280;44843;44.728;10.396;2023-02-15T04:24:39;101817.25;;;4.65;nan
59053;BME280;44843;44.728;10.396;2023-02-15T04:27:23;101814.75;;;4.57;nan
59053;BME280;44843;44.728;10.396;2023-02-15T04:29:49;101815.56;;;4.61;nan
59053;BME280;44843;44.728;10.396;2023-02-15T04:32:15;101814.72;;;4.62;nan
59053;BME280;44843;44.728;10.396;2023-02-15T04:34:40;101812.13;;;4.62;nan
59053;BME280;44843;44.728;10.396;2023-02-15T04:37:05;101815.56;;;4.64;nan
59053;BME280;44843;44.728;10.396;2023-02-15T04:39:31;101814.78;;;4.54;nan
59053;BME280;44843;44.728;10.396;2023-02-15T04:41:57;101821.72;;;4.49;nan
59053;BME280;44843;44.728;10.396;2023-02-15T04:44:22;101816.50;;;4.52;nan
59053;BME280;44843;44.728;10.396;2023-02-15T04:46:48;101817.41;;;4.51;nan
59053;BME280;44843;44.728;10.396;2023-02-15T04:49:13;101815.56;;;4.62;nan
59053;BME280;44843;44.728;10.396;2023-02-15T04:51:39;101814.88;;;4.46;nan
59053;BME280;44843;44.728;10.396;2023-02-15T04:54:04;101827.84;;;4.40;nan
59053;BME280;44843;44.728;10.396;2023-02-15T04:56:29;101826.19;;;4.30;nan
59053;BME280;44843;44.728;10.396;2023-02-15T04:58:56;101827.13;;;4.21;nan
59053;BME280;44843;44.728;10.396;2023-02-15T05:01:21;101814.31;;;4.13;nan
59053;BME280;44843;44.728;10.396;2023-02-15T05:03:47;101823.88;;;4.01;nan
59053;BME280;44843;44.728;10.396;2023-02-15T05:06:12;101820.50;;;3.94;nan
59053;BME280;44843;44.728;10.396;2023-02-15T05:08:37;101817.91;;;3.91;nan
59053;BME280;44843;44.728;10.396;2023-02-15T05:11:03;101822.31;;;3.81;nan
59053;BME280;44843;44.728;10.396;2023-02-15T05:13:28;101816.34;;;3.76;nan
59053;BME280;44843;44.728;10.396;2023-02-15T05:15:54;101815.41;;;3.83;nan
59053;BME280;44843;44.728;10.396;2023-02-15T05:18:20;101812.03;;;3.77;nan
59053;BME280;44843;44.728;10.396;2023-02-15T05:20:47;101818.03;;;3.79;nan
59053;BME280;44843;44.728;10.396;2023-02-15T05:23:12;101820.53;;;3.89;nan
59053;BME280;44843;44.728;10.396;2023-02-15T05:25:38;101818.84;;;3.82;nan
59053;BME280;44843;44.728;10.396;2023-02-15T05:28:24;101811.91;;;3.94;nan
59053;BME280;44843;44.728;10.396;2023-02-15T05:31:02;101819.63;;;3.95;nan
59053;BME280;44843;44.728;10.396;2023-02-15T05:33:27;101818.75;;;3.95;nan
59053;BME280;44843;44.728;10.396;2023-02-15T05:35:53;101814.38;;;4.07;nan
59053;BME280;44843;44.728;10.396;2023-02-15T05:38:18;101815.22;;;4.08;nan
59053;BME280;44843;44.728;10.396;2023-02-15T05:40:44;101812.63;;;4.09;nan
59053;BME280;44843;44.728;10.396;2023-02-15T05:43:09;101814.19;;;4.29;nan
59053;BME280;44843;44.728;10.396;2023-02-15T05:45:34;101815.81;;;4.36;nan
59053;BME280;44843;44.728;10.396;2023-02-15T05:48:00;101808.88;;;4.43;nan
59053;BME280;44843;44.728;10.396;2023-02-15T05:50:25;101814.13;;;4.32;nan
59053;BME280;44843;44.728;10.396;2023-02-15T05:52:51;101811.66;;;4.23;nan
59053;BME280;44843;44.728;10.396;2023-02-15T05:55:17;101811.75;;;4.10;nan
59053;BME280;44843;44.728;10.396;2023-02-15T05:57:42;101813.47;;;4.08;nan
59053;BME280;44843;44.728;10.396;2023-02-15T06:00:08;101817.00;;;4.00;nan
59053;BME280;44843;44.728;10.396;2023-02-15T06:02:35;101822.16;;;4.03;nan
59053;BME280;44843;44.728;10.396;2023-02-15T06:05:01;101813.56;;;4.01;nan
59053;BME280;44843;44.728;10.396;2023-02-15T06:07:26;101814.38;;;4.09;nan
59053;BME280;44843;44.728;10.396;2023-02-15T06:09:52;101816.06;;;4.11;nan
59053;BME280;44843;44.728;10.396;2023-02-15T06:12:17;101813.38;;;4.19;nan
59053;BME280;44843;44.728;10.396;2023-02-15T06:14:42;101810.75;;;4.27;nan
59053;BME280;44843;44.728;10.396;2023-02-15T06:17:08;101816.72;;;4.30;nan
59053;BME280;44843;44.728;10.396;2023-02-15T06:19:33;101815.06;;;4.23;nan
59053;BME280;44843;44.728;10.396;2023-02-15T06:21:58;101816.00;;;4.16;nan
59053;BME280;44843;44.728;10.396;2023-02-15T06:24:24;101820.28;;;4.17;nan
59053;BME280;44843;44.728;10.396;2023-02-15T06:26:49;101820.31;;;4.16;nan
59053;BME280;44843;44.728;10.396;2023-02-15T06:29:14;101823.84;;;4.07;nan
59053;BME280;44843;44.728;10.396;2023-02-15T06:31:40;101820.34;;;4.11;nan
59053;BME280;44843;44.728;10.396;2023-02-15T06:34:05;101829.75;;;4.18;nan
59053;BME280;44843;44.728;10.396;2023-02-15T06:36:31;101834.75;;;4.40;nan
59053;BME280;44843;44.728;10.396;2023-02-15T06:38:57;101838.97;;;4.47;nan
59053;BME280;44843;44.728;10.396;2023-02-15T06:41:23;101839.81;;;4.50;nan
59053;BME280;44843;44.728;10.396;2023-02-15T06:43:49;101850.09;;;4.53;nan
59053;BME280;44843;44.728;10.396;2023-02-15T06:46:14;101844.94;;;4.53;nan
59053;BME280;44843;44.728;10.396;2023-02-15T06:48:39;101845.78;;;4.54;nan
59053;BME280;44843;44.728;10.396;2023-02-15T06:51:05;101845.75;;;4.57;nan
59053;BME280;44843;44.728;10.396;2023-02-15T06:53:30;101848.31;;;4.60;nan
59053;BME280;44843;44.728;10.396;2023-02-15T06:56:03;101828.44;;;4.65;nan
59053;BME280;44843;44.728;10.396;2023-02-15T06:58:32;101829.25;;;4.70;nan
59053;BME280;44843;44.728;10.396;2023-02-15T07:00:58;101835.28;;;4.71;nan
59053;BME280;44843;44.728;10.396;2023-02-15T07:03:23;101836.06;;;4.79;nan
59053;BME280;44843;44.728;10.396;2023-02-15T07:05:54;101836.84;;;4.86;nan
59053;BME280;44843;44.728;10.396;2023-02-15T07:08:19;101831.56;;;4.95;nan
59053;BME280;44843;44.728;10.396;2023-02-15T07:10:46;101841.81;;;5.01;nan
59053;BME280;44843;44.728;10.396;2023-02-15T07:13:11;101843.25;;;5.24;nan
59053;BME280;44843;44.728;10.396;2023-02-15T07:15:37;101842.13;;;5.45;nan
59053;BME280;44843;44.728;10.396;2023-02-15T07:18:02;101840.16;;;5.62;nan
59053;BME280;44843;44.728;10.396;2023-02-15T07:20:27;101839.19;;;5.68;nan
59053;BME280;44843;44.728;10.396;2023-02-15T07:22:54;101844.91;;;5.90;nan
59053;BME280;44843;44.728;10.396;2023-02-15T07:25:19;101844.53;;;6.16;nan
59053;BME280;44843;44.728;10.396;2023-02-15T07:27:45;101850.25;;;6.36;nan
59053;BME280;44843;44.728;10.396;2023-02-15T07:30:12;101849.19;;;6.47;nan
59053;BME280;44843;44.728;10.396;2023-02-15T07:32:38;101854.41;;;6.45;nan
59053;BME280;44843;44.728;10.396;2023-02-15T07:35:23;101863.00;;;6.47;nan
59053;BME280;44843;44.728;10.396;2023-02-15T07:37:49;101861.22;;;6.49;nan
59053;BME280;44843;44.728;10.396;2023-02-15T07:40:15;101856.16;;;6.43;nan
59053;BME280;44843;44.728;10.396;2023-02-15T07:42:40;101860.44;;;6.46;nan
59053;BME280;44843;44.728;10.396;2023-02-15T07:45:06;101858.56;;;6.54;nan
59053;BME280;44843;44.728;10.396;2023-02-15T07:47:31;101851.56;;;6.59;nan
59053;BME280;44843;44.728;10.396;2023-02-15T07:49:56;101847.94;;;6.68;nan
59053;BME280;44843;44.728;10.396;2023-02-15T07:52:22;101851.44;;;6.65;nan
59053;BME280;44843;44.728;10.396;2023-02-15T07:54:47;101838.94;;;6.86;nan
59053;BME280;44843;44.728;10.396;2023-02-15T07:57:12;101842.88;;;7.07;nan
59053;BME280;44843;44.728;10.396;2023-02-15T07:59:38;101846.81;;;7.25;nan
59053;BME280;44843;44.728;10.396;2023-02-15T08:02:08;101850.16;;;7.30;nan
59053;BME280;44843;44.728;10.396;2023-02-15T08:04:34;101856.16;;;7.32;nan
59053;BME280;44843;44.728;10.396;2023-02-15T08:06:59;101845.56;;;7.42;nan
59053;BME280;44843;44.728;10.396;2023-02-15T08:09:25;101846.28;;;7.49;nan
59053;BME280;44843;44.728;10.396;2023-02-15T08:11:50;101850.25;;;7.66;nan
59053;BME280;44843;44.728;10.396;2023-02-15T08:14:18;101847.19;;;7.86;nan
59053;BME280;44843;44.728;10.396;2023-02-15T08:19:11;101848.75;;;8.27;nan
59053;BME280;44843;44.728;10.396;2023-02-15T08:21:40;101848.31;;;8.45;nan
59053;BME280;44843;44.728;10.396;2023-02-15T08:24:06;101839.16;;;8.63;nan
59053;BME280;44843;44.728;10.396;2023-02-15T08:26:33;101838.88;;;8.41;nan
59053;BME280;44843;44.728;10.396;2023-02-15T08:28:59;101837.50;;;8.61;nan
59053;BME280;44843;44.728;10.396;2023-02-15T08:31:26;101841.88;;;8.60;nan
59053;BME280;44843;44.728;10.396;2023-02-15T08:33:54;101843.47;;;8.66;nan
59053;BME280;44843;44.728;10.396;2023-02-15T08:36:21;101849.25;;;8.76;nan
59053;BME280;44843;44.728;10.396;2023-02-15T08:38:47;101845.69;;;8.78;nan
59053;BME280;44843;44.728;10.396;2023-02-15T08:43:40;101846.63;;;9.07;nan
59053;BME280;44843;44.728;10.396;2023-02-15T08:46:06;101846.94;;;8.96;nan
59053;BME280;44843;44.728;10.396;2023-02-15T08:48:32;101848.09;;;8.86;nan
59053;BME280;44843;44.728;10.396;2023-02-15T08:50:57;101854.47;;;8.74;nan
59053;BME280;44843;44.728;10.396;2023-02-15T08:53:23;101861.78;;;8.93;nan
59053;BME280;44843;44.728;10.396;2023-02-15T08:55:55;101859.09;;;8.96;nan
59053;BME280;44843;44.728;10.396;2023-02-15T08:58:21;101854.97;;;8.89;nan
59053;BME280;44843;44.728;10.396;2023-02-15T09:00:47;101860.28;;;8.85;nan
59053;BME280;44843;44.728;10.396;2023-02-15T09:03:12;101851.66;;;8.83;nan
59053;BME280;44843;44.728;10.396;2023-02-15T09:05:37;101860.03;;;8.93;nan
59053;BME280;44843;44.728;10.396;2023-02-15T09:08:03;101851.59;;;8.85;nan
59053;BME280;44843;44.728;10.396;2023-02-15T09:10:29;101856.63;;;8.91;nan
59053;BME280;44843;44.728;10.396;2023-02-15T09:12:54;101862.50;;;8.98;nan
59053;BME280;44843;44.728;10.396;2023-02-15T09:15:19;101859.97;;;9.26;nan
59053;BME280;44843;44.728;10.396;2023-02-15T09:17:45;101855.16;;;9.42;nan
59053;BME280;44843;44.728;10.396;2023-02-15T09:20:10;101854.50;;;9.63;nan
59053;BME280;44843;44.728;10.396;2023-02-15T09:22:36;101855.75;;;9.80;nan
59053;BME280;44843;44.728;10.396;2023-02-15T09:25:01;101856.56;;;10.08;nan
59053;BME280;44843;44.728;10.396;2023-02-15T09:27:26;101857.25;;;10.14;nan
59053;BME280;44843;44.728;10.396;2023-02-15T09:29:52;101857.06;;;9.93;nan
59053;BME280;44843;44.728;10.396;2023-02-15T09:32:17;101858.16;;;10.13;nan
59053;BME280;44843;44.728;10.396;2023-02-15T09:34:42;101862.75;;;9.78;nan
59053;BME280;44843;44.728;10.396;2023-02-15T09:37:08;101858.94;;;9.88;nan
59053;BME280;44843;44.728;10.396;2023-02-15T09:39:33;101861.19;;;9.72;nan
59053;BME280;44843;44.728;10.396;2023-02-15T09:58:45;101864.97;;;10.17;nan
59053;BME280;44843;44.728;10.396;2023-02-15T10:01:34;101862.94;;;10.25;nan
59053;BME280;44843;44.728;10.396;2023-02-15T10:04:27;101865.28;;;10.34;nan
59053;BME280;44843;44.728;10.396;2023-02-15T10:19:58;101851.66;;;11.00;nan
59053;BME280;44843;44.728;10.396;2023-02-15T10:22:34;101848.03;;;11.04;nan
59053;BME280;44843;44.728;10.396;2023-02-15T10:25:28;101842.03;;;10.78;nan
59053;BME280;44843;44.728;10.396;2023-02-15T10:28:06;101842.66;;;10.85;nan
59053;BME280;44843;44.728;10.396;2023-02-15T10:30:47;101844.41;;;10.84;nan
59053;BME280;44843;44.728;10.396;2023-02-15T10:58:21;101810.25;;;11.14;nan
59053;BME280;44843;44.728;10.396;2023-02-15T11:01:16;101802.88;;;11.02;nan
59053;BME280;44843;44.728;10.396;2023-02-15T11:06:51;101808.78;;;11.30;nan
59053;BME280;44843;44.728;10.396;2023-02-15T11:09:21;101803.22;;;11.38;nan
59053;BME280;44843;44.728;10.396;2023-02-15T11:11:50;101797.94;;;11.84;nan
59053;BME280;44843;44.728;10.396;2023-02-15T11:17:10;101786.22;;;11.94;nan
59053;BME280;44843;44.728;10.396;2023-02-15T11:19:43;101781.41;;;11.83;nan
59053;BME280;44843;44.728;10.396;2023-02-15T11:22:14;101778.69;;;12.07;nan
59053;BME280;44843;44.728;10.396;2023-02-15T11:24:43;101772.88;;;12.00;nan
59053;BME280;44843;44.728;10.396;2023-02-15T11:27:50;101759.59;;;12.25;nan
59053;BME280;44843;44.728;10.396;2023-02-15T11:30:24;101770.78;;;12.08;nan
59053;BME280;44843;44.728;10.396;2023-02-15T11:32:53;101771.00;;;11.82;nan
59053;BME280;44843;44.728;10.396;2023-02-15T11:35:27;101767.94;;;11.72;nan
59053;BME280;44843;44.728;10.396;2023-02-15T11:41:07;101760.88;;;11.96;nan
59053;BME280;44843;44.728;10.396;2023-02-15T11:46:11;101744.53;;;12.11;nan
59053;BME280;44843;44.728;10.396;2023-02-15T11:48:37;101746.66;;;12.02;nan
59053;BME280;44843;44.728;10.396;2023-02-15T11:51:03;101735.59;;;12.15;nan
59053;BME280;44843;44.728;10.396;2023-02-15T11:53:32;101742.59;;;12.35;nan
59053;BME280;44843;44.728;10.396;2023-02-15T11:55:59;101739.69;;;12.42;nan
59053;BME280;44843;44.728;10.396;2023-02-15T12:03:52;101725.09;;;12.38;nan
59053;BME280;44843;44.728;10.396;2023-02-15T12:06:35;101721.34;;;12.81;nan
59053;BME280;44843;44.728;10.396;2023-02-15T12:11:54;101715.47;;;12.76;nan
59053;BME280;44843;44.728;10.396;2023-02-15T12:14:54;101718.78;;;12.98;nan
59053;BME280;44843;44.728;10.396;2023-02-15T12:17:31;101712.06;;;12.93;nan
59053;BME280;44843;44.728;10.396;2023-02-15T12:20:02;101711.38;;;12.89;nan
59053;BME280;44843;44.728;10.396;2023-02-15T12:22:33;101707.13;;;13.06;nan
59053;BME280;44843;44.728;10.396;2023-02-15T12:25:11;101710.53;;;12.89;nan
59053;BME280;44843;44.728;10.396;2023-02-15T12:27:45;101690.94;;;13.15;nan
59053;BME280;44843;44.728;10.396;2023-02-15T12:30:21;101691.91;;;12.76;nan
59053;BME280;44843;44.728;10.396;2023-02-15T12:33:04;101698.72;;;12.80;nan
59053;BME280;44843;44.728;10.396;2023-02-15T12:35:33;101691.91;;;12.95;nan
59053;BME280;44843;44.728;10.396;2023-02-15T12:38:03;101683.31;;;13.10;nan
59053;BME280;44843;44.728;10.396;2023-02-15T12:40:32;101682.72;;;12.86;nan
59053;BME280;44843;44.728;10.396;2023-02-15T12:42:58;101688.47;;;12.75;nan
59053;BME280;44843;44.728;10.396;2023-02-15T12:45:32;101679.44;;;12.81;nan
59053;BME280;44843;44.728;10.396;2023-02-15T12:50:35;101672.06;;;13.08;nan
59053;BME280;44843;44.728;10.396;2023-02-15T12:53:13;101668.34;;;12.95;nan
59053;BME280;44843;44.728;10.396;2023-02-15T12:55:49;101665.66;;;13.14;nan
59053;BME280;44843;44.728;10.396;2023-02-15T12:58:23;101667.56;;;13.29;nan
59053;BME280;44843;44.728;10.396;2023-02-15T13:03:35;101663.13;;;13.49;nan
59053;BME280;44843;44.728;10.396;2023-02-15T13:06:02;101653.16;;;13.55;nan
59053;BME280;44843;44.728;10.396;2023-02-15T13:08:45;101656.03;;;13.51;nan
59053;BME280;44843;44.728;10.396;2023-02-15T13:11:11;101646.63;;;13.47;nan
59053;BME280;44843;44.728;10.396;2023-02-15T13:13:53;101645.25;;;13.39;nan
59053;BME280;44843;44.728;10.396;2023-02-15T13:16:39;101639.63;;;13.47;nan
59053;BME280;44843;44.728;10.396;2023-02-15T13:19:12;101633.84;;;13.58;nan
59053;BME280;44843;44.728;10.396;2023-02-15T13:21:42;101624.22;;;13.41;nan
59053;BME280;44843;44.728;10.396;2023-02-15T13:24:20;101626.13;;;13.37;nan
59053;BME280;44843;44.728;10.396;2023-02-15T13:26:47;101626.53;;;13.30;nan
59053;BME280;44843;44.728;10.396;2023-02-15T13:31:51;101622.50;;;13.40;nan
59053;BME280;44843;44.728;10.396;2023-02-15T13:34:33;101621.34;;;13.28;nan
59053;BME280;44843;44.728;10.396;2023-02-15T13:37:17;101611.25;;;13.38;nan
59053;BME280;44843;44.728;10.396;2023-02-15T13:42:36;101611.47;;;13.33;nan
59053;BME280;44843;44.728;10.396;2023-02-15T13:45:28;101615.34;;;13.61;nan
59053;BME280;44843;44.728;10.396;2023-02-15T13:56:36;101607.66;;;14.07;nan
59053;BME280;44843;44.728;10.396;2023-02-15T14:05:05;101611.19;;;14.24;nan
59053;BME280;44843;44.728;10.396;2023-02-15T14:16:04;101599.16;;;13.86;nan
59053;BME280;44843;44.728;10.396;2023-02-15T14:18:51;101600.69;;;13.90;nan
59053;BME280;44843;44.728;10.396;2023-02-15T14:21:35;101599.53;;;13.63;nan
59053;BME280;44843;44.728;10.396;2023-02-15T14:24:24;101602.50;;;13.72;nan
59053;BME280;44843;44.728;10.396;2023-02-15T14:32:36;101603.88;;;14.13;nan
59053;BME280;44843;44.728;10.396;2023-02-15T14:35:05;101592.16;;;13.87;nan
59053;BME280;44843;44.728;10.396;2023-02-15T14:38:14;101591.59;;;13.97;nan
59053;BME280;44843;44.728;10.396;2023-02-15T14:48:35;101588.22;;;14.27;nan
59053;BME280;44843;44.728;10.396;2023-02-15T14:51:03;101578.56;;;14.75;nan
59053;BME280;44843;44.728;10.396;2023-02-15T14:58:35;101570.56;;;14.31;nan
59053;BME280;44843;44.728;10.396;2023-02-15T15:01:09;101573.31;;;14.28;nan
59053;BME280;44843;44.728;10.396;2023-02-15T15:03:35;101571.31;;;14.33;nan
59053;BME280;44843;44.728;10.396;2023-02-15T15:06:03;101565.88;;;14.36;nan
59053;BME280;44843;44.728;10.396;2023-02-15T15:08:36;101566.06;;;14.33;nan
59053;BME280;44843;44.728;10.396;2023-02-15T15:13:59;101565.72;;;14.07;nan
59053;BME280;44843;44.728;10.396;2023-02-15T15:16:29;101563.84;;;13.93;nan
59053;BME280;44843;44.728;10.396;2023-02-15T15:18:56;101562.25;;;14.07;nan
59053;BME280;44843;44.728;10.396;2023-02-15T15:32:54;101550.56;;;14.12;nan
59053;BME280;44843;44.728;10.396;2023-02-15T15:35:37;101556.13;;;13.90;nan
59053;BME280;44843;44.728;10.396;2023-02-15T15:38:58;101557.25;;;14.02;nan
59053;BME280;44843;44.728;10.396;2023-02-15T15:41:19;101556.06;;;14.08;nan
59053;BME280;44843;44.728;10.396;2023-02-15T15:49:24;101562.31;;;14.53;nan
59053;BME280;44843;44.728;10.396;2023-02-15T15:51:52;101560.16;;;14.61;nan
59053;BME280;44843;44.728;10.396;2023-02-15T15:54:23;101561.06;;;14.44;nan
59053;BME280;44843;44.728;10.396;2023-02-15T15:57:00;101557.34;;;14.48;nan
59053;BME280;44843;44.728;10.396;2023-02-15T15:59:33;101554.03;;;14.29;nan
59053;BME280;44843;44.728;10.396;2023-02-15T16:02:10;101554.97;;;14.28;nan
59053;BME280;44843;44.728;10.396;2023-02-15T16:04:36;101557.59;;;14.28;nan
59053;BME280;44843;44.728;10.396;2023-02-15T16:07:25;101556.09;;;14.24;nan
59053;BME280;44843;44.728;10.396;2023-02-15T16:09:58;101563.00;;;13.93;nan
59053;BME280;44843;44.728;10.396;2023-02-15T16:12:27;101561.97;;;13.95;nan
59053;BME280;44843;44.728;10.396;2023-02-15T16:14:54;101557.34;;;13.67;nan
59053;BME280;44843;44.728;10.396;2023-02-15T16:17:26;101560.00;;;13.50;nan
59053;BME280;44843;44.728;10.396;2023-02-15T16:19:58;101550.91;;;13.57;nan
59053;BME280;44843;44.728;10.396;2023-02-15T16:22:25;101555.84;;;13.46;nan
59053;BME280;44843;44.728;10.396;2023-02-15T16:24:58;101548.13;;;13.60;nan